sensor_id;sensor_type;location;lat;lon;timestamp;P1;durP1;ratioP1;P2;durP2;ratioP2
67442;SDS011;54311;51.726;5.154;2023-06-10T00:01:56;10.35;;;9.50;;
67442;SDS011;54311;51.726;5.154;2023-06-10T00:04:24;12.57;;;9.88;;
67442;SDS011;54311;51.726;5.154;2023-06-10T00:06:50;13.98;;;10.50;;
67442;SDS011;54311;51.726;5.154;2023-06-10T00:09:16;10.20;;;9.25;;
67442;SDS011;54311;51.726;5.154;2023-06-10T00:11:41;11.02;;;10.05;;
67442;SDS011;54311;51.726;5.154;2023-06-10T00:14:07;11.65;;;10.55;;
67442;SDS011;54311;51.726;5.154;2023-06-10T00:16:32;16.33;;;10.48;;
67442;SDS011;54311;51.726;5.154;2023-06-10T00:19:00;15.65;;;10.27;;
67442;SDS011;54311;51.726;5.154;2023-06-10T00:21:27;11.65;;;10.50;;
67442;SDS011;54311;51.726;5.154;2023-06-10T00:23:53;11.23;;;10.13;;
67442;SDS011;54311;51.726;5.154;2023-06-10T00:26:20;11.07;;;10.05;;
67442;SDS011;54311;51.726;5.154;2023-06-10T00:28:46;11.82;;;10.70;;
67442;SDS011;54311;51.726;5.154;2023-06-10T00:31:12;10.45;;;9.65;;
67442;SDS011;54311;51.726;5.154;2023-06-10T00:33:37;12.68;;;10.07;;
67442;SDS011;54311;51.726;5.154;2023-06-10T00:36:02;12.05;;;10.00;;
67442;SDS011;54311;51.726;5.154;2023-06-10T00:38:28;10.43;;;9.52;;
67442;SDS011;54311;51.726;5.154;2023-06-10T00:40:53;9.95;;;8.93;;
67442;SDS011;54311;51.726;5.154;2023-06-10T00:43:19;11.55;;;10.35;;
67442;SDS011;54311;51.726;5.154;2023-06-10T00:45:44;21.30;;;10.48;;
67442;SDS011;54311;51.726;5.154;2023-06-10T00:48:10;11.10;;;10.30;;
67442;SDS011;54311;51.726;5.154;2023-06-10T00:50:35;18.70;;;9.43;;
67442;SDS011;54311;51.726;5.154;2023-06-10T00:53:07;10.70;;;9.75;;
67442;SDS011;54311;51.726;5.154;2023-06-10T00:55:33;13.20;;;10.40;;
67442;SDS011;54311;51.726;5.154;2023-06-10T00:57:58;10.98;;;10.02;;
67442;SDS011;54311;51.726;5.154;2023-06-10T01:00:25;11.40;;;10.27;;
67442;SDS011;54311;51.726;5.154;2023-06-10T01:02:50;11.48;;;10.55;;
67442;SDS011;54311;51.726;5.154;2023-06-10T01:05:17;13.88;;;10.10;;
67442;SDS011;54311;51.726;5.154;2023-06-10T01:07:45;11.50;;;10.00;;
67442;SDS011;54311;51.726;5.154;2023-06-10T01:13:00;11.65;;;10.75;;
67442;SDS011;54311;51.726;5.154;2023-06-10T01:15:33;12.25;;;11.15;;
67442;SDS011;54311;51.726;5.154;2023-06-10T01:18:06;11.57;;;10.35;;
67442;SDS011;54311;51.726;5.154;2023-06-10T01:20:43;11.73;;;10.60;;
67442;SDS011;54311;51.726;5.154;2023-06-10T01:23:09;10.88;;;9.80;;
67442;SDS011;54311;51.726;5.154;2023-06-10T01:25:43;11.70;;;10.80;;
67442;SDS011;54311;51.726;5.154;2023-06-10T01:28:19;11.90;;;10.85;;
67442;SDS011;54311;51.726;5.154;2023-06-10T01:33:49;11.93;;;10.70;;
67442;SDS011;54311;51.726;5.154;2023-06-10T01:36:17;11.57;;;10.55;;
67442;SDS011;54311;51.726;5.154;2023-06-10T01:38:44;12.07;;;10.88;;
67442;SDS011;54311;51.726;5.154;2023-06-10T01:41:13;13.02;;;11.77;;
67442;SDS011;54311;51.726;5.154;2023-06-10T01:43:42;12.65;;;11.48;;
67442;SDS011;54311;51.726;5.154;2023-06-10T01:46:08;13.55;;;12.05;;
67442;SDS011;54311;51.726;5.154;2023-06-10T01:48:33;12.73;;;11.45;;
67442;SDS011;54311;51.726;5.154;2023-06-10T01:50:59;13.63;;;12.45;;
67442;SDS011;54311;51.726;5.154;2023-06-10T01:53:24;28.83;;;13.30;;
67442;SDS011;54311;51.726;5.154;2023-06-10T01:55:50;14.40;;;13.10;;
67442;SDS011;54311;51.726;5.154;2023-06-10T01:58:15;14.25;;;13.00;;
67442;SDS011;54311;51.726;5.154;2023-06-10T02:00:41;14.82;;;13.38;;
67442;SDS011;54311;51.726;5.154;2023-06-10T02:03:06;14.32;;;13.23;;
67442;SDS011;54311;51.726;5.154;2023-06-10T02:05:31;14.82;;;13.48;;
67442;SDS011;54311;51.726;5.154;2023-06-10T02:07:57;15.75;;;14.07;;
67442;SDS011;54311;51.726;5.154;2023-06-10T02:10:22;15.40;;;14.07;;
67442;SDS011;54311;51.726;5.154;2023-06-10T02:12:47;15.07;;;13.60;;
67442;SDS011;54311;51.726;5.154;2023-06-10T02:15:13;15.75;;;14.18;;
67442;SDS011;54311;51.726;5.154;2023-06-10T02:17:38;14.95;;;13.55;;
67442;SDS011;54311;51.726;5.154;2023-06-10T02:20:04;15.43;;;13.70;;
67442;SDS011;54311;51.726;5.154;2023-06-10T02:22:32;14.05;;;12.95;;
67442;SDS011;54311;51.726;5.154;2023-06-10T02:24:57;14.95;;;13.60;;
67442;SDS011;54311;51.726;5.154;2023-06-10T02:27:23;16.42;;;13.82;;
67442;SDS011;54311;51.726;5.154;2023-06-10T02:29:48;14.40;;;13.20;;
67442;SDS011;54311;51.726;5.154;2023-06-10T02:32:13;15.55;;;14.10;;
67442;SDS011;54311;51.726;5.154;2023-06-10T02:34:39;14.98;;;13.60;;
67442;SDS011;54311;51.726;5.154;2023-06-10T02:37:04;14.70;;;12.90;;
67442;SDS011;54311;51.726;5.154;2023-06-10T02:39:29;13.88;;;12.55;;
67442;SDS011;54311;51.726;5.154;2023-06-10T02:41:55;13.75;;;12.55;;
67442;SDS011;54311;51.726;5.154;2023-06-10T02:44:20;15.85;;;14.18;;
67442;SDS011;54311;51.726;5.154;2023-06-10T02:46:46;14.77;;;13.48;;
67442;SDS011;54311;51.726;5.154;2023-06-10T02:49:11;14.77;;;13.27;;
67442;SDS011;54311;51.726;5.154;2023-06-10T02:51:37;15.13;;;13.82;;
67442;SDS011;54311;51.726;5.154;2023-06-10T02:54:03;14.50;;;13.07;;
67442;SDS011;54311;51.726;5.154;2023-06-10T02:56:28;15.45;;;13.25;;
67442;SDS011;54311;51.726;5.154;2023-06-10T02:58:53;16.02;;;14.15;;
67442;SDS011;54311;51.726;5.154;2023-06-10T03:01:19;15.27;;;12.70;;
67442;SDS011;54311;51.726;5.154;2023-06-10T03:03:45;14.13;;;12.90;;
67442;SDS011;54311;51.726;5.154;2023-06-10T03:06:11;15.13;;;13.85;;
67442;SDS011;54311;51.726;5.154;2023-06-10T03:08:37;15.15;;;13.70;;
67442;SDS011;54311;51.726;5.154;2023-06-10T03:11:03;15.15;;;13.80;;
67442;SDS011;54311;51.726;5.154;2023-06-10T03:13:29;14.93;;;13.68;;
67442;SDS011;54311;51.726;5.154;2023-06-10T03:15:54;14.85;;;13.05;;
67442;SDS011;54311;51.726;5.154;2023-06-10T03:18:20;15.52;;;13.90;;
67442;SDS011;54311;51.726;5.154;2023-06-10T03:20:45;15.50;;;13.48;;
67442;SDS011;54311;51.726;5.154;2023-06-10T03:23:10;14.63;;;13.07;;
67442;SDS011;54311;51.726;5.154;2023-06-10T03:25:36;14.13;;;13.02;;
67442;SDS011;54311;51.726;5.154;2023-06-10T03:28:01;19.63;;;13.50;;
67442;SDS011;54311;51.726;5.154;2023-06-10T03:30:27;13.95;;;12.85;;
67442;SDS011;54311;51.726;5.154;2023-06-10T03:32:53;13.55;;;12.32;;
67442;SDS011;54311;51.726;5.154;2023-06-10T03:35:18;13.32;;;12.35;;
67442;SDS011;54311;51.726;5.154;2023-06-10T03:37:43;14.70;;;12.98;;
67442;SDS011;54311;51.726;5.154;2023-06-10T03:40:09;14.27;;;13.07;;
67442;SDS011;54311;51.726;5.154;2023-06-10T03:42:34;13.85;;;12.65;;
67442;SDS011;54311;51.726;5.154;2023-06-10T03:45:00;19.13;;;12.15;;
67442;SDS011;54311;51.726;5.154;2023-06-10T03:47:26;13.48;;;12.25;;
67442;SDS011;54311;51.726;5.154;2023-06-10T03:49:51;14.63;;;11.93;;
67442;SDS011;54311;51.726;5.154;2023-06-10T03:52:17;13.68;;;12.23;;
67442;SDS011;54311;51.726;5.154;2023-06-10T03:54:43;14.60;;;12.02;;
67442;SDS011;54311;51.726;5.154;2023-06-10T03:57:08;16.73;;;11.93;;
67442;SDS011;54311;51.726;5.154;2023-06-10T03:59:34;18.50;;;12.65;;
67442;SDS011;54311;51.726;5.154;2023-06-10T04:01:59;17.10;;;12.38;;
67442;SDS011;54311;51.726;5.154;2023-06-10T04:04:25;12.80;;;11.70;;
67442;SDS011;54311;51.726;5.154;2023-06-10T04:06:50;18.30;;;12.00;;
67442;SDS011;54311;51.726;5.154;2023-06-10T04:09:16;13.23;;;12.23;;
67442;SDS011;54311;51.726;5.154;2023-06-10T04:11:41;13.55;;;12.15;;
67442;SDS011;54311;51.726;5.154;2023-06-10T04:14:07;13.43;;;12.23;;
67442;SDS011;54311;51.726;5.154;2023-06-10T04:16:33;13.10;;;11.73;;
67442;SDS011;54311;51.726;5.154;2023-06-10T04:18:59;13.52;;;12.13;;
67442;SDS011;54311;51.726;5.154;2023-06-10T04:21:25;12.55;;;11.43;;
67442;SDS011;54311;51.726;5.154;2023-06-10T04:23:51;13.77;;;12.40;;
67442;SDS011;54311;51.726;5.154;2023-06-10T04:26:16;20.40;;;12.05;;
67442;SDS011;54311;51.726;5.154;2023-06-10T04:28:42;12.27;;;11.10;;
67442;SDS011;54311;51.726;5.154;2023-06-10T04:31:08;13.38;;;12.30;;
67442;SDS011;54311;51.726;5.154;2023-06-10T04:33:34;13.40;;;12.10;;
67442;SDS011;54311;51.726;5.154;2023-06-10T04:35:59;13.35;;;12.10;;
67442;SDS011;54311;51.726;5.154;2023-06-10T04:38:24;15.48;;;11.50;;
67442;SDS011;54311;51.726;5.154;2023-06-10T04:40:50;19.45;;;11.48;;
67442;SDS011;54311;51.726;5.154;2023-06-10T04:43:15;12.30;;;11.20;;
67442;SDS011;54311;51.726;5.154;2023-06-10T04:45:41;12.32;;;10.93;;
67442;SDS011;54311;51.726;5.154;2023-06-10T04:48:09;16.20;;;11.55;;
67442;SDS011;54311;51.726;5.154;2023-06-10T04:50:35;11.80;;;10.63;;
67442;SDS011;54311;51.726;5.154;2023-06-10T04:53:01;12.55;;;11.35;;
67442;SDS011;54311;51.726;5.154;2023-06-10T04:55:26;16.30;;;11.68;;
67442;SDS011;54311;51.726;5.154;2023-06-10T04:57:52;14.85;;;10.73;;
67442;SDS011;54311;51.726;5.154;2023-06-10T05:00:17;12.27;;;11.18;;
67442;SDS011;54311;51.726;5.154;2023-06-10T05:02:43;14.50;;;11.02;;
67442;SDS011;54311;51.726;5.154;2023-06-10T05:05:09;17.08;;;11.18;;
67442;SDS011;54311;51.726;5.154;2023-06-10T05:07:35;12.50;;;11.25;;
67442;SDS011;54311;51.726;5.154;2023-06-10T05:10:00;19.30;;;11.70;;
67442;SDS011;54311;51.726;5.154;2023-06-10T05:12:26;13.07;;;11.65;;
67442;SDS011;54311;51.726;5.154;2023-06-10T05:14:52;12.65;;;10.13;;
67442;SDS011;54311;51.726;5.154;2023-06-10T05:17:17;13.10;;;10.90;;
67442;SDS011;54311;51.726;5.154;2023-06-10T05:19:42;15.80;;;11.63;;
67442;SDS011;54311;51.726;5.154;2023-06-10T05:22:08;13.07;;;11.77;;
67442;SDS011;54311;51.726;5.154;2023-06-10T05:24:33;18.52;;;11.10;;
67442;SDS011;54311;51.726;5.154;2023-06-10T05:26:59;12.63;;;11.25;;
67442;SDS011;54311;51.726;5.154;2023-06-10T05:29:24;20.10;;;12.25;;
67442;SDS011;54311;51.726;5.154;2023-06-10T05:31:50;12.02;;;10.80;;
67442;SDS011;54311;51.726;5.154;2023-06-10T05:34:16;12.15;;;10.40;;
67442;SDS011;54311;51.726;5.154;2023-06-10T05:36:41;21.60;;;11.43;;
67442;SDS011;54311;51.726;5.154;2023-06-10T05:39:06;18.95;;;11.60;;
67442;SDS011;54311;51.726;5.154;2023-06-10T05:41:32;14.60;;;11.13;;
67442;SDS011;54311;51.726;5.154;2023-06-10T05:43:57;23.63;;;10.75;;
67442;SDS011;54311;51.726;5.154;2023-06-10T05:46:22;13.30;;;10.98;;
67442;SDS011;54311;51.726;5.154;2023-06-10T05:48:48;13.13;;;11.27;;
67442;SDS011;54311;51.726;5.154;2023-06-10T05:51:13;11.98;;;10.77;;
67442;SDS011;54311;51.726;5.154;2023-06-10T05:53:38;12.00;;;10.80;;
67442;SDS011;54311;51.726;5.154;2023-06-10T05:56:04;14.20;;;10.93;;
67442;SDS011;54311;51.726;5.154;2023-06-10T05:58:30;12.70;;;11.20;;
67442;SDS011;54311;51.726;5.154;2023-06-10T06:00:55;17.48;;;11.85;;
67442;SDS011;54311;51.726;5.154;2023-06-10T06:03:20;18.23;;;12.00;;
67442;SDS011;54311;51.726;5.154;2023-06-10T06:05:46;12.55;;;11.13;;
67442;SDS011;54311;51.726;5.154;2023-06-10T06:08:11;15.48;;;11.07;;
67442;SDS011;54311;51.726;5.154;2023-06-10T06:10:38;14.48;;;12.38;;
67442;SDS011;54311;51.726;5.154;2023-06-10T06:13:03;13.02;;;11.55;;
67442;SDS011;54311;51.726;5.154;2023-06-10T06:15:29;17.13;;;11.32;;
67442;SDS011;54311;51.726;5.154;2023-06-10T06:17:54;12.30;;;10.75;;
67442;SDS011;54311;51.726;5.154;2023-06-10T06:20:20;13.63;;;10.93;;
67442;SDS011;54311;51.726;5.154;2023-06-10T06:22:46;14.90;;;11.68;;
67442;SDS011;54311;51.726;5.154;2023-06-10T06:25:12;14.65;;;11.45;;
67442;SDS011;54311;51.726;5.154;2023-06-10T06:27:37;13.18;;;11.73;;
67442;SDS011;54311;51.726;5.154;2023-06-10T06:30:02;13.07;;;11.25;;
67442;SDS011;54311;51.726;5.154;2023-06-10T06:32:28;12.57;;;11.27;;
67442;SDS011;54311;51.726;5.154;2023-06-10T06:34:53;12.15;;;10.10;;
67442;SDS011;54311;51.726;5.154;2023-06-10T06:37:21;13.85;;;11.68;;
67442;SDS011;54311;51.726;5.154;2023-06-10T06:39:47;14.32;;;10.82;;
67442;SDS011;54311;51.726;5.154;2023-06-10T06:42:12;14.65;;;10.88;;
67442;SDS011;54311;51.726;5.154;2023-06-10T06:44:38;16.50;;;10.75;;
67442;SDS011;54311;51.726;5.154;2023-06-10T06:47:03;13.85;;;10.55;;
67442;SDS011;54311;51.726;5.154;2023-06-10T06:49:29;13.15;;;11.77;;
67442;SDS011;54311;51.726;5.154;2023-06-10T06:51:54;12.25;;;10.32;;
67442;SDS011;54311;51.726;5.154;2023-06-10T06:54:19;13.25;;;10.95;;
67442;SDS011;54311;51.726;5.154;2023-06-10T06:56:45;11.02;;;9.93;;
67442;SDS011;54311;51.726;5.154;2023-06-10T06:59:10;14.32;;;10.23;;
67442;SDS011;54311;51.726;5.154;2023-06-10T07:01:38;14.20;;;9.48;;
67442;SDS011;54311;51.726;5.154;2023-06-10T07:04:04;10.73;;;9.75;;
67442;SDS011;54311;51.726;5.154;2023-06-10T07:06:29;10.60;;;9.65;;
67442;SDS011;54311;51.726;5.154;2023-06-10T07:08:54;10.63;;;9.65;;
67442;SDS011;54311;51.726;5.154;2023-06-10T07:11:20;11.60;;;8.93;;
67442;SDS011;54311;51.726;5.154;2023-06-10T07:13:47;11.40;;;9.23;;
67442;SDS011;54311;51.726;5.154;2023-06-10T07:16:12;10.00;;;8.98;;
67442;SDS011;54311;51.726;5.154;2023-06-10T07:18:37;12.77;;;9.20;;
67442;SDS011;54311;51.726;5.154;2023-06-10T07:21:03;10.57;;;8.73;;
67442;SDS011;54311;51.726;5.154;2023-06-10T07:23:28;11.82;;;8.50;;
67442;SDS011;54311;51.726;5.154;2023-06-10T07:25:53;12.82;;;8.75;;
67442;SDS011;54311;51.726;5.154;2023-06-10T07:28:19;12.23;;;8.23;;
67442;SDS011;54311;51.726;5.154;2023-06-10T07:30:44;11.85;;;8.75;;
67442;SDS011;54311;51.726;5.154;2023-06-10T07:33:10;13.40;;;8.38;;
67442;SDS011;54311;51.726;5.154;2023-06-10T07:35:35;9.32;;;8.40;;
67442;SDS011;54311;51.726;5.154;2023-06-10T07:38:01;9.38;;;8.48;;
67442;SDS011;54311;51.726;5.154;2023-06-10T07:40:26;8.63;;;7.70;;
67442;SDS011;54311;51.726;5.154;2023-06-10T07:42:51;14.52;;;8.45;;
67442;SDS011;54311;51.726;5.154;2023-06-10T07:45:18;8.60;;;7.72;;
67442;SDS011;54311;51.726;5.154;2023-06-10T07:47:43;9.57;;;7.68;;
67442;SDS011;54311;51.726;5.154;2023-06-10T07:50:08;8.82;;;7.88;;
67442;SDS011;54311;51.726;5.154;2023-06-10T07:52:34;10.65;;;8.02;;
67442;SDS011;54311;51.726;5.154;2023-06-10T07:54:59;9.60;;;8.35;;
67442;SDS011;54311;51.726;5.154;2023-06-10T07:57:25;9.95;;;7.93;;
67442;SDS011;54311;51.726;5.154;2023-06-10T07:59:50;12.57;;;7.65;;
67442;SDS011;54311;51.726;5.154;2023-06-10T08:02:15;11.52;;;7.75;;
67442;SDS011;54311;51.726;5.154;2023-06-10T08:04:41;11.50;;;8.23;;
67442;SDS011;54311;51.726;5.154;2023-06-10T08:07:06;12.57;;;7.63;;
67442;SDS011;54311;51.726;5.154;2023-06-10T08:09:32;10.23;;;8.10;;
67442;SDS011;54311;51.726;5.154;2023-06-10T08:11:57;9.18;;;8.07;;
67442;SDS011;54311;51.726;5.154;2023-06-10T08:14:22;10.30;;;8.93;;
67442;SDS011;54311;51.726;5.154;2023-06-10T08:16:48;10.43;;;7.78;;
67442;SDS011;54311;51.726;5.154;2023-06-10T08:19:13;8.88;;;7.95;;
67442;SDS011;54311;51.726;5.154;2023-06-10T08:21:38;8.60;;;7.80;;
67442;SDS011;54311;51.726;5.154;2023-06-10T08:24:05;9.48;;;7.88;;
67442;SDS011;54311;51.726;5.154;2023-06-10T08:26:31;10.27;;;7.70;;
67442;SDS011;54311;51.726;5.154;2023-06-10T08:28:56;13.85;;;6.80;;
67442;SDS011;54311;51.726;5.154;2023-06-10T08:31:22;9.63;;;7.25;;
67442;SDS011;54311;51.726;5.154;2023-06-10T08:33:47;10.48;;;7.05;;
67442;SDS011;54311;51.726;5.154;2023-06-10T08:36:12;8.20;;;7.15;;
67442;SDS011;54311;51.726;5.154;2023-06-10T08:38:38;10.88;;;7.20;;
67442;SDS011;54311;51.726;5.154;2023-06-10T08:41:04;11.25;;;7.82;;
67442;SDS011;54311;51.726;5.154;2023-06-10T08:43:36;7.72;;;7.00;;
67442;SDS011;54311;51.726;5.154;2023-06-10T08:46:03;9.23;;;7.47;;
67442;SDS011;54311;51.726;5.154;2023-06-10T08:48:31;13.13;;;6.97;;
67442;SDS011;54311;51.726;5.154;2023-06-10T08:50:59;11.57;;;6.90;;
67442;SDS011;54311;51.726;5.154;2023-06-10T08:53:25;14.38;;;7.47;;
67442;SDS011;54311;51.726;5.154;2023-06-10T08:55:51;9.07;;;6.95;;
67442;SDS011;54311;51.726;5.154;2023-06-10T08:58:17;7.45;;;6.03;;
67442;SDS011;54311;51.726;5.154;2023-06-10T09:00:42;16.63;;;6.85;;
67442;SDS011;54311;51.726;5.154;2023-06-10T09:03:08;7.47;;;6.43;;
67442;SDS011;54311;51.726;5.154;2023-06-10T09:05:34;9.90;;;6.55;;
67442;SDS011;54311;51.726;5.154;2023-06-10T09:08:01;12.18;;;7.47;;
67442;SDS011;54311;51.726;5.154;2023-06-10T09:10:27;8.10;;;7.15;;
67442;SDS011;54311;51.726;5.154;2023-06-10T09:12:52;8.00;;;6.90;;
67442;SDS011;54311;51.726;5.154;2023-06-10T09:15:18;10.52;;;7.15;;
67442;SDS011;54311;51.726;5.154;2023-06-10T09:17:43;7.80;;;7.10;;
67442;SDS011;54311;51.726;5.154;2023-06-10T09:20:10;8.10;;;6.38;;
67442;SDS011;54311;51.726;5.154;2023-06-10T09:22:35;7.57;;;6.85;;
67442;SDS011;54311;51.726;5.154;2023-06-10T09:25:05;13.23;;;6.80;;
67442;SDS011;54311;51.726;5.154;2023-06-10T09:30:09;6.30;;;5.80;;
67442;SDS011;54311;51.726;5.154;2023-06-10T09:32:40;9.45;;;6.53;;
67442;SDS011;54311;51.726;5.154;2023-06-10T09:35:08;9.25;;;6.38;;
67442;SDS011;54311;51.726;5.154;2023-06-10T09:37:34;11.15;;;6.30;;
67442;SDS011;54311;51.726;5.154;2023-06-10T09:40:04;9.60;;;6.22;;
67442;SDS011;54311;51.726;5.154;2023-06-10T09:42:33;8.77;;;6.88;;
67442;SDS011;54311;51.726;5.154;2023-06-10T09:45:00;12.00;;;6.72;;
67442;SDS011;54311;51.726;5.154;2023-06-10T09:47:26;10.00;;;6.85;;
67442;SDS011;54311;51.726;5.154;2023-06-10T09:49:51;12.23;;;6.47;;
67442;SDS011;54311;51.726;5.154;2023-06-10T09:52:22;10.82;;;6.75;;
67442;SDS011;54311;51.726;5.154;2023-06-10T09:54:49;11.75;;;6.82;;
67442;SDS011;54311;51.726;5.154;2023-06-10T09:57:15;12.23;;;7.15;;
67442;SDS011;54311;51.726;5.154;2023-06-10T09:59:41;8.15;;;7.13;;
67442;SDS011;54311;51.726;5.154;2023-06-10T10:02:10;9.32;;;6.97;;
67442;SDS011;54311;51.726;5.154;2023-06-10T10:04:38;7.32;;;6.63;;
67442;SDS011;54311;51.726;5.154;2023-06-10T10:07:04;10.45;;;6.78;;
67442;SDS011;54311;51.726;5.154;2023-06-10T10:09:29;7.68;;;6.97;;
67442;SDS011;54311;51.726;5.154;2023-06-10T10:11:54;8.23;;;6.80;;
67442;SDS011;54311;51.726;5.154;2023-06-10T10:14:20;8.60;;;6.45;;
67442;SDS011;54311;51.726;5.154;2023-06-10T10:16:46;10.00;;;7.10;;
67442;SDS011;54311;51.726;5.154;2023-06-10T10:19:12;13.00;;;7.00;;
67442;SDS011;54311;51.726;5.154;2023-06-10T10:21:48;11.40;;;7.00;;
67442;SDS011;54311;51.726;5.154;2023-06-10T10:24:17;9.40;;;7.22;;
67442;SDS011;54311;51.726;5.154;2023-06-10T10:26:45;12.80;;;6.70;;
67442;SDS011;54311;51.726;5.154;2023-06-10T10:29:14;9.45;;;7.18;;
67442;SDS011;54311;51.726;5.154;2023-06-10T10:31:50;13.45;;;6.82;;
67442;SDS011;54311;51.726;5.154;2023-06-10T10:34:19;9.38;;;6.63;;
67442;SDS011;54311;51.726;5.154;2023-06-10T10:36:48;7.65;;;6.70;;
67442;SDS011;54311;51.726;5.154;2023-06-10T10:39:14;10.48;;;6.50;;
67442;SDS011;54311;51.726;5.154;2023-06-10T10:41:40;7.80;;;6.82;;
67442;SDS011;54311;51.726;5.154;2023-06-10T10:44:06;11.52;;;6.80;;
67442;SDS011;54311;51.726;5.154;2023-06-10T10:46:41;9.95;;;6.30;;
67442;SDS011;54311;51.726;5.154;2023-06-10T10:49:11;12.13;;;6.45;;
67442;SDS011;54311;51.726;5.154;2023-06-10T10:51:38;10.60;;;6.03;;
67442;SDS011;54311;51.726;5.154;2023-06-10T10:54:19;7.70;;;6.80;;
67442;SDS011;54311;51.726;5.154;2023-06-10T11:04:58;8.57;;;5.93;;
67442;SDS011;54311;51.726;5.154;2023-06-10T11:07:26;7.10;;;6.07;;
67442;SDS011;54311;51.726;5.154;2023-06-10T11:10:04;11.73;;;6.22;;
67442;SDS011;54311;51.726;5.154;2023-06-10T11:15:11;9.15;;;6.10;;
67442;SDS011;54311;51.726;5.154;2023-06-10T11:23:09;10.15;;;6.38;;
67442;SDS011;54311;51.726;5.154;2023-06-10T11:25:40;7.45;;;5.95;;
67442;SDS011;54311;51.726;5.154;2023-06-10T11:28:18;6.72;;;6.13;;
67442;SDS011;54311;51.726;5.154;2023-06-10T11:30:44;8.57;;;5.50;;
67442;SDS011;54311;51.726;5.154;2023-06-10T11:33:13;8.35;;;5.80;;
67442;SDS011;54311;51.726;5.154;2023-06-10T11:35:41;6.47;;;5.80;;
67442;SDS011;54311;51.726;5.154;2023-06-10T11:38:06;11.68;;;6.30;;
67442;SDS011;54311;51.726;5.154;2023-06-10T11:40:32;5.88;;;5.43;;
67442;SDS011;54311;51.726;5.154;2023-06-10T11:42:59;8.38;;;6.28;;
67442;SDS011;54311;51.726;5.154;2023-06-10T11:45:24;6.65;;;5.60;;
67442;SDS011;54311;51.726;5.154;2023-06-10T11:47:56;9.88;;;5.60;;
67442;SDS011;54311;51.726;5.154;2023-06-10T11:50:29;7.53;;;5.90;;
67442;SDS011;54311;51.726;5.154;2023-06-10T11:52:57;12.90;;;5.88;;
67442;SDS011;54311;51.726;5.154;2023-06-10T11:55:24;8.48;;;5.75;;
67442;SDS011;54311;51.726;5.154;2023-06-10T11:57:50;6.20;;;5.60;;
67442;SDS011;54311;51.726;5.154;2023-06-10T12:00:22;6.15;;;5.50;;
67442;SDS011;54311;51.726;5.154;2023-06-10T12:02:55;10.00;;;5.47;;
67442;SDS011;54311;51.726;5.154;2023-06-10T12:05:22;7.90;;;5.90;;
67442;SDS011;54311;51.726;5.154;2023-06-10T12:07:49;7.30;;;5.53;;
67442;SDS011;54311;51.726;5.154;2023-06-10T12:10:14;10.60;;;5.80;;
67442;SDS011;54311;51.726;5.154;2023-06-10T12:12:41;9.07;;;5.82;;
67442;SDS011;54311;51.726;5.154;2023-06-10T12:15:06;9.40;;;5.85;;
67442;SDS011;54311;51.726;5.154;2023-06-10T12:19:59;6.25;;;5.65;;
67442;SDS011;54311;51.726;5.154;2023-06-10T12:22:25;7.28;;;5.82;;
67442;SDS011;54311;51.726;5.154;2023-06-10T12:25:03;8.10;;;5.80;;
67442;SDS011;54311;51.726;5.154;2023-06-10T12:27:32;7.60;;;6.03;;
67442;SDS011;54311;51.726;5.154;2023-06-10T12:29:59;6.93;;;6.30;;
67442;SDS011;54311;51.726;5.154;2023-06-10T12:32:39;7.72;;;6.20;;
67442;SDS011;54311;51.726;5.154;2023-06-10T12:35:06;6.55;;;5.93;;
67442;SDS011;54311;51.726;5.154;2023-06-10T12:37:32;8.25;;;6.03;;
67442;SDS011;54311;51.726;5.154;2023-06-10T12:39:59;6.78;;;6.05;;
67442;SDS011;54311;51.726;5.154;2023-06-10T12:42:25;8.50;;;5.60;;
67442;SDS011;54311;51.726;5.154;2023-06-10T12:44:53;5.82;;;5.32;;
67442;SDS011;54311;51.726;5.154;2023-06-10T12:47:19;14.43;;;5.70;;
67442;SDS011;54311;51.726;5.154;2023-06-10T12:49:45;7.80;;;6.10;;
67442;SDS011;54311;51.726;5.154;2023-06-10T12:52:10;8.77;;;5.63;;
67442;SDS011;54311;51.726;5.154;2023-06-10T12:54:35;7.47;;;5.35;;
67442;SDS011;54311;51.726;5.154;2023-06-10T12:57:01;6.05;;;5.53;;
67442;SDS011;54311;51.726;5.154;2023-06-10T12:59:27;9.18;;;5.88;;
67442;SDS011;54311;51.726;5.154;2023-06-10T13:01:53;5.82;;;5.35;;
67442;SDS011;54311;51.726;5.154;2023-06-10T13:04:19;5.22;;;4.88;;
67442;SDS011;54311;51.726;5.154;2023-06-10T13:06:45;5.50;;;4.97;;
67442;SDS011;54311;51.726;5.154;2023-06-10T13:09:11;9.80;;;6.13;;
67442;SDS011;54311;51.726;5.154;2023-06-10T13:11:37;7.70;;;5.45;;
67442;SDS011;54311;51.726;5.154;2023-06-10T13:14:03;18.00;;;5.60;;
67442;SDS011;54311;51.726;5.154;2023-06-10T13:16:30;8.52;;;5.28;;
67442;SDS011;54311;51.726;5.154;2023-06-10T13:18:56;10.60;;;4.68;;
67442;SDS011;54311;51.726;5.154;2023-06-10T13:21:22;11.30;;;5.10;;
67442;SDS011;54311;51.726;5.154;2023-06-10T13:23:47;6.45;;;4.82;;
67442;SDS011;54311;51.726;5.154;2023-06-10T13:26:13;6.45;;;5.03;;
67442;SDS011;54311;51.726;5.154;2023-06-10T13:28:41;10.25;;;5.22;;
67442;SDS011;54311;51.726;5.154;2023-06-10T13:31:06;8.57;;;4.82;;
67442;SDS011;54311;51.726;5.154;2023-06-10T13:33:32;8.40;;;5.40;;
67442;SDS011;54311;51.726;5.154;2023-06-10T13:35:57;5.43;;;4.95;;
67442;SDS011;54311;51.726;5.154;2023-06-10T13:38:22;9.80;;;5.22;;
67442;SDS011;54311;51.726;5.154;2023-06-10T13:40:48;8.60;;;4.93;;
67442;SDS011;54311;51.726;5.154;2023-06-10T13:43:13;8.23;;;4.88;;
67442;SDS011;54311;51.726;5.154;2023-06-10T13:45:39;5.35;;;4.93;;
67442;SDS011;54311;51.726;5.154;2023-06-10T13:48:04;5.05;;;4.65;;
67442;SDS011;54311;51.726;5.154;2023-06-10T13:50:30;6.25;;;5.32;;
67442;SDS011;54311;51.726;5.154;2023-06-10T13:52:56;7.50;;;5.78;;
67442;SDS011;54311;51.726;5.154;2023-06-10T13:55:22;6.70;;;4.85;;
67442;SDS011;54311;51.726;5.154;2023-06-10T13:57:47;23.35;;;5.40;;
67442;SDS011;54311;51.726;5.154;2023-06-10T14:00:12;8.73;;;5.40;;
67442;SDS011;54311;51.726;5.154;2023-06-10T14:02:38;7.55;;;4.93;;
67442;SDS011;54311;51.726;5.154;2023-06-10T14:05:04;8.32;;;4.72;;
67442;SDS011;54311;51.726;5.154;2023-06-10T14:07:30;5.78;;;4.90;;
67442;SDS011;54311;51.726;5.154;2023-06-10T14:09:55;7.43;;;4.70;;
67442;SDS011;54311;51.726;5.154;2023-06-10T14:12:21;5.25;;;4.45;;
67442;SDS011;54311;51.726;5.154;2023-06-10T14:14:47;5.68;;;5.03;;
67442;SDS011;54311;51.726;5.154;2023-06-10T14:17:12;5.03;;;4.57;;
67442;SDS011;54311;51.726;5.154;2023-06-10T14:19:37;6.90;;;4.88;;
67442;SDS011;54311;51.726;5.154;2023-06-10T14:22:05;10.10;;;5.07;;
67442;SDS011;54311;51.726;5.154;2023-06-10T14:24:31;5.32;;;4.90;;
67442;SDS011;54311;51.726;5.154;2023-06-10T14:26:57;5.25;;;4.57;;
67442;SDS011;54311;51.726;5.154;2023-06-10T14:29:23;5.93;;;4.88;;
67442;SDS011;54311;51.726;5.154;2023-06-10T14:31:48;7.05;;;5.00;;
67442;SDS011;54311;51.726;5.154;2023-06-10T14:34:14;8.88;;;4.82;;
67442;SDS011;54311;51.726;5.154;2023-06-10T14:36:39;7.50;;;4.75;;
67442;SDS011;54311;51.726;5.154;2023-06-10T14:39:05;5.05;;;4.60;;
67442;SDS011;54311;51.726;5.154;2023-06-10T14:41:30;6.20;;;4.93;;
67442;SDS011;54311;51.726;5.154;2023-06-10T14:43:56;10.88;;;4.78;;
67442;SDS011;54311;51.726;5.154;2023-06-10T14:46:21;14.68;;;5.13;;
67442;SDS011;54311;51.726;5.154;2023-06-10T14:48:47;10.13;;;5.25;;
67442;SDS011;54311;51.726;5.154;2023-06-10T14:51:12;6.90;;;5.03;;
67442;SDS011;54311;51.726;5.154;2023-06-10T14:53:37;10.63;;;5.30;;
67442;SDS011;54311;51.726;5.154;2023-06-10T14:56:03;8.13;;;4.65;;